createdAt,value
2023-01-05T00:00:06.577Z,9.7
2023-01-05T00:01:05.924Z,9.7
2023-01-05T00:02:06.410Z,9.7
2023-01-05T00:03:05.834Z,9.8
2023-01-05T00:04:06.048Z,9.7
2023-01-05T00:05:04.637Z,9.7
2023-01-05T00:06:06.041Z,9.7
2023-01-05T00:07:06.256Z,9.7
2023-01-05T00:08:05.814Z,9.7
2023-01-05T00:09:06.144Z,9.7
2023-01-05T00:10:06.507Z,9.7
2023-01-05T00:11:05.917Z,9.7
2023-01-05T00:12:06.124Z,9.7
2023-01-05T00:13:06.451Z,10
2023-01-05T00:14:06.637Z,9.7
2023-01-05T00:15:04.842Z,9.7
2023-01-05T00:16:06.708Z,10
2023-01-05T00:17:05.698Z,9.7
2023-01-05T00:18:06.174Z,9.7
2023-01-05T00:19:06.182Z,9.7
2023-01-05T00:20:06.016Z,9.7
2023-01-05T00:21:06.280Z,10
2023-01-05T00:22:06.357Z,10
2023-01-05T00:23:05.985Z,9.8
2023-01-05T00:24:05.953Z,9.8
2023-01-05T00:25:15.083Z,9.8
2023-01-05T00:26:05.841Z,9.8
2023-01-05T00:27:06.308Z,9.7
2023-01-05T00:28:05.671Z,10
2023-01-05T00:29:05.306Z,10
2023-01-05T00:30:06.148Z,9.7
2023-01-05T00:31:05.772Z,9.6
2023-01-05T00:32:05.970Z,9.6
2023-01-05T00:33:06.580Z,10
2023-01-05T00:34:06.083Z,9.6
2023-01-05T00:35:06.250Z,9.7
2023-01-05T00:36:05.736Z,9.6
2023-01-05T00:37:05.853Z,9.6
2023-01-05T00:38:06.173Z,9.6
2023-01-05T00:39:06.474Z,9.6
2023-01-05T00:40:05.636Z,9.6
2023-01-05T00:41:05.131Z,9.6
2023-01-05T00:42:06.219Z,9.6
2023-01-05T00:43:05.640Z,9.6
2023-01-05T00:44:06.372Z,9.6
2023-01-05T00:45:05.697Z,10
2023-01-05T00:46:06.556Z,10
2023-01-05T00:47:05.409Z,10
2023-01-05T00:48:06.024Z,10
2023-01-05T00:49:06.103Z,9.6
2023-01-05T00:50:06.286Z,9.6
2023-01-05T00:51:05.859Z,9.6
2023-01-05T00:52:05.797Z,9.6
2023-01-05T00:53:06.265Z,9.7
2023-01-05T00:54:06.674Z,9.6
2023-01-05T00:55:05.783Z,9.7
2023-01-05T00:56:06.674Z,9.7
2023-01-05T00:57:05.795Z,9.7
2023-01-05T00:58:06.154Z,9.7
2023-01-05T00:59:05.731Z,9.7
2023-01-05T01:00:06.145Z,9.7
2023-01-05T01:01:06.948Z,9.7
2023-01-05T01:02:07.129Z,9.7
2023-01-05T01:03:06.065Z,9.7
2023-01-05T01:04:06.357Z,9.8
2023-01-05T01:05:06.390Z,9.7
2023-01-05T01:06:05.759Z,9.7
2023-01-05T01:07:06.559Z,9.7
2023-01-05T01:08:06.303Z,9.7
2023-01-05T01:09:06.020Z,9.7
2023-01-05T01:10:05.724Z,9.7
2023-01-05T01:11:06.702Z,9.7
2023-01-05T01:12:05.888Z,9.7
2023-01-05T01:13:06.334Z,9.7
2023-01-05T01:14:05.762Z,9.7
2023-01-05T01:15:05.599Z,9.6
2023-01-05T01:16:06.615Z,9.7
2023-01-05T01:17:06.001Z,9.7
2023-01-05T01:18:05.849Z,9.6
2023-01-05T01:19:09.592Z,9.7
2023-01-05T01:20:06.256Z,9.6
2023-01-05T01:21:05.882Z,9.6
2023-01-05T01:22:05.498Z,9.6
2023-01-05T01:23:05.375Z,10
2023-01-05T01:24:05.887Z,10
2023-01-05T01:25:06.481Z,10
2023-01-05T01:26:05.754Z,9.6
2023-01-05T01:27:05.878Z,9.6
2023-01-05T01:28:05.658Z,9.5
2023-01-05T01:29:06.006Z,9.5
2023-01-05T01:30:05.923Z,9.5
2023-01-05T01:31:04.844Z,9.5
2023-01-05T01:32:06.485Z,10
2023-01-05T01:33:05.991Z,9.4
2023-01-05T01:34:06.360Z,9.5
2023-01-05T01:35:05.657Z,9.5
2023-01-05T01:36:06.618Z,9.4
2023-01-05T01:37:05.998Z,9.4
2023-01-05T01:38:06.249Z,9.4
2023-01-05T01:39:05.970Z,9.4
2023-01-05T01:40:05.990Z,9.4
2023-01-05T01:41:06.198Z,9.4
2023-01-05T01:42:05.950Z,9.4
2023-01-05T01:43:06.188Z,9.4
2023-01-05T01:44:06.412Z,9.4
2023-01-05T01:45:06.316Z,9.4
2023-01-05T01:46:05.828Z,9.4
2023-01-05T01:47:05.962Z,9.4
2023-01-05T01:48:06.608Z,9.4
2023-01-05T01:49:06.508Z,9.4
2023-01-05T01:50:06.570Z,10
2023-01-05T01:51:12.162Z,10
2023-01-05T01:52:06.060Z,9.4
2023-01-05T01:53:06.409Z,10
2023-01-05T01:54:05.492Z,9.4
2023-01-05T01:55:05.961Z,9.4
2023-01-05T01:56:05.706Z,9.4
2023-01-05T01:57:05.836Z,9.4
2023-01-05T01:58:05.964Z,9.4
2023-01-05T01:59:06.227Z,9.4
2023-01-05T02:00:06.160Z,9.4
2023-01-05T02:01:06.613Z,9.4
2023-01-05T02:02:06.499Z,9.4
2023-01-05T02:03:06.036Z,9.4
2023-01-05T02:04:06.575Z,10
2023-01-05T02:05:06.234Z,9.5
2023-01-05T02:06:06.000Z,9.5
2023-01-05T02:07:05.167Z,9.5
2023-01-05T02:08:05.259Z,9.5
2023-01-05T02:09:05.172Z,9.5
2023-01-05T02:10:05.685Z,9.5
2023-01-05T02:11:05.967Z,9.5
2023-01-05T02:12:06.416Z,9.5
2023-01-05T02:13:05.723Z,9.5
2023-01-05T02:14:05.884Z,9.5
2023-01-05T02:15:06.241Z,9.5
2023-01-05T02:16:06.401Z,9.6
2023-01-05T02:17:05.929Z,9.5
2023-01-05T02:18:06.122Z,9.5
2023-01-05T02:19:06.209Z,9.5
2023-01-05T02:20:06.556Z,9.5
2023-01-05T02:21:08.020Z,9.5
2023-01-05T02:22:05.769Z,9.6
2023-01-05T02:23:06.458Z,9.6
2023-01-05T02:24:05.621Z,9.6
2023-01-05T02:25:06.382Z,9.6
2023-01-05T02:26:05.587Z,9.6
2023-01-05T02:27:06.302Z,10
2023-01-05T02:28:06.583Z,9.6
2023-01-05T02:29:05.895Z,9.6
2023-01-05T02:30:06.171Z,9.6
2023-01-05T02:31:06.162Z,10
2023-01-05T02:32:06.364Z,9.6
2023-01-05T02:33:06.443Z,9.6
2023-01-05T02:34:05.548Z,9.7
2023-01-05T02:35:06.209Z,9.7
2023-01-05T02:36:05.871Z,9.7
2023-01-05T02:37:06.414Z,9.7
2023-01-05T02:38:05.752Z,9.7
2023-01-05T02:39:06.246Z,9.7
2023-01-05T02:40:06.119Z,9.7
2023-01-05T02:41:05.674Z,9.8
2023-01-05T02:42:06.171Z,10
2023-01-05T02:43:06.360Z,10
2023-01-05T02:44:06.727Z,9.8
2023-01-05T02:45:06.113Z,9.8
2023-01-05T02:46:05.892Z,9.8
2023-01-05T02:47:05.204Z,9.8
2023-01-05T02:48:06.002Z,9.8
2023-01-05T02:49:05.821Z,9.8
2023-01-05T02:50:06.417Z,9.8
2023-01-05T02:51:06.197Z,10
2023-01-05T02:52:06.450Z,9.8
2023-01-05T02:53:06.139Z,10
2023-01-05T02:54:06.147Z,9.8
2023-01-05T02:55:06.738Z,10
2023-01-05T02:56:06.399Z,10
2023-01-05T02:57:05.556Z,9.8
2023-01-05T02:58:05.879Z,10
2023-01-05T02:59:05.918Z,9.8
2023-01-05T03:00:05.988Z,9.8
2023-01-05T03:01:06.278Z,9.8
2023-01-05T03:02:06.599Z,9.8
2023-01-05T03:03:06.668Z,9.8
2023-01-05T03:04:06.481Z,9.8
2023-01-05T03:05:06.791Z,9.8
2023-01-05T03:06:06.009Z,9.8
2023-01-05T03:07:06.512Z,9.8
2023-01-05T03:08:06.620Z,9.8
2023-01-05T03:09:06.052Z,9.8
2023-01-05T03:10:06.112Z,9.8
2023-01-05T03:11:06.193Z,9.8
2023-01-05T03:12:05.157Z,9.8
2023-01-05T03:13:06.608Z,9.8
2023-01-05T03:14:06.381Z,9.8
2023-01-05T03:15:06.589Z,9.9
2023-01-05T03:16:06.492Z,9.9
2023-01-05T03:17:05.805Z,9.9
2023-01-05T03:18:06.129Z,10
2023-01-05T03:19:06.207Z,9.9
2023-01-05T03:20:06.295Z,9.9
2023-01-05T03:21:06.560Z,9.9
2023-01-05T03:22:05.516Z,10
2023-01-05T03:23:06.036Z,9.9
2023-01-05T03:24:06.660Z,9.9
2023-01-05T03:25:05.682Z,9.9
2023-01-05T03:26:05.759Z,9.9
2023-01-05T03:27:05.813Z,9.9
2023-01-05T03:28:06.275Z,10
2023-01-05T03:29:06.394Z,10
2023-01-05T03:30:06.146Z,10
2023-01-05T03:31:06.153Z,10
2023-01-05T03:32:06.006Z,10
2023-01-05T03:33:06.388Z,10
2023-01-05T03:34:06.100Z,10
2023-01-05T03:35:05.759Z,10
2023-01-05T03:36:06.044Z,10
2023-01-05T03:37:05.635Z,10
2023-01-05T03:38:06.670Z,10
2023-01-05T03:39:05.940Z,10
2023-01-05T03:40:06.497Z,10
2023-01-05T03:41:06.296Z,10
2023-01-05T03:42:05.938Z,10
2023-01-05T03:43:05.909Z,10.1
2023-01-05T03:44:05.989Z,10
2023-01-05T03:45:06.527Z,10
2023-01-05T03:46:06.204Z,10
2023-01-05T03:47:06.294Z,10.1
2023-01-05T03:48:06.653Z,10.1
2023-01-05T03:49:06.118Z,10.1
2023-01-05T03:50:05.345Z,10.1
2023-01-05T03:51:05.844Z,10.1
2023-01-05T03:52:05.767Z,10.1
2023-01-05T03:53:05.792Z,10.1
2023-01-05T03:54:06.378Z,10.1
2023-01-05T03:55:05.823Z,10.1
2023-01-05T03:56:06.470Z,10
2023-01-05T03:57:05.848Z,10.1
2023-01-05T03:58:06.050Z,10.1
2023-01-05T03:59:06.307Z,10.1
2023-01-05T04:00:05.976Z,10.1
2023-01-05T04:01:06.026Z,10.1
2023-01-05T04:02:07.039Z,10.1
2023-01-05T04:03:06.079Z,10
2023-01-05T04:04:06.105Z,10.1
2023-01-05T04:05:06.406Z,10.1
2023-01-05T04:06:06.377Z,10.1
2023-01-05T04:07:06.288Z,10
2023-01-05T04:08:06.021Z,10.1
2023-01-05T04:09:06.552Z,10.1
2023-01-05T04:10:05.772Z,10.1
2023-01-05T04:11:06.090Z,10.1
2023-01-05T04:12:06.561Z,10.1
2023-01-05T04:13:06.083Z,10.1
2023-01-05T04:14:05.436Z,10.1
2023-01-05T04:15:06.536Z,10.1
2023-01-05T04:16:04.915Z,10.1
2023-01-05T04:17:05.821Z,10.1
2023-01-05T04:18:06.184Z,10.1
2023-01-05T04:19:06.597Z,10
2023-01-05T04:20:05.829Z,10.1
2023-01-05T04:21:06.150Z,10.1
2023-01-05T04:22:06.389Z,10.1
2023-01-05T04:23:06.620Z,10.1
2023-01-05T04:24:06.044Z,10.1
2023-01-05T04:25:06.554Z,10.1
2023-01-05T04:26:05.979Z,10
2023-01-05T04:27:04.845Z,10.1
2023-01-05T04:28:05.927Z,10
2023-01-05T04:29:06.647Z,10.1
2023-01-05T04:30:06.277Z,10
2023-01-05T04:31:06.459Z,10.1
2023-01-05T04:32:06.368Z,10.1
2023-01-05T04:33:06.061Z,10.1
2023-01-05T04:34:06.278Z,10
2023-01-05T04:35:14.540Z,10.1
2023-01-05T04:36:06.303Z,10.1
2023-01-05T04:37:06.631Z,10.1
2023-01-05T04:38:06.526Z,10.1
2023-01-05T04:39:05.837Z,10.1
2023-01-05T04:40:06.159Z,10.1
2023-01-05T04:41:06.047Z,10.1
2023-01-05T04:42:06.034Z,10.1
2023-01-05T04:43:06.463Z,10.1
2023-01-05T04:44:06.525Z,10
2023-01-05T04:45:06.723Z,10.1
2023-01-05T04:46:06.859Z,10
2023-01-05T04:47:06.507Z,10.1
2023-01-05T04:48:06.160Z,10.1
2023-01-05T04:49:06.077Z,10.1
2023-01-05T04:50:06.587Z,10.1
2023-01-05T04:51:06.028Z,10.1
2023-01-05T04:52:05.478Z,10
2023-01-05T04:53:06.229Z,10.1
2023-01-05T04:54:06.650Z,10.1
2023-01-05T04:55:05.925Z,10.1
2023-01-05T04:56:06.017Z,10.1
2023-01-05T04:57:06.718Z,10.1
2023-01-05T04:58:14.346Z,10.1
2023-01-05T04:59:05.935Z,10.1
2023-01-05T05:00:06.741Z,10.1
2023-01-05T05:01:06.882Z,10.1
2023-01-05T05:02:06.389Z,10.1
2023-01-05T05:03:06.658Z,10.1
2023-01-05T05:04:05.722Z,10
2023-01-05T05:05:06.327Z,10
2023-01-05T05:06:06.048Z,10
2023-01-05T05:07:06.366Z,10.1
2023-01-05T05:08:06.577Z,10.1
2023-01-05T05:09:05.873Z,10.1
2023-01-05T05:10:06.137Z,10.1
2023-01-05T05:11:05.934Z,10.1
2023-01-05T05:12:06.325Z,10.1
2023-01-05T05:13:06.410Z,10.1
2023-01-05T05:14:05.843Z,10.1
2023-01-05T05:15:06.286Z,10
2023-01-05T05:16:06.666Z,10.1
2023-01-05T05:17:04.992Z,10.1
2023-01-05T05:18:12.868Z,10.1
2023-01-05T05:19:05.636Z,10
2023-01-05T05:20:06.150Z,10.1
2023-01-05T05:21:06.247Z,10.1
2023-01-05T05:22:06.584Z,10.1
2023-01-05T05:23:05.640Z,10.1
2023-01-05T05:24:06.682Z,10.1
2023-01-05T05:25:05.800Z,10.1
2023-01-05T05:26:06.421Z,10.1
2023-01-05T05:27:06.420Z,10.1
2023-01-05T05:28:06.307Z,10.1
2023-01-05T05:29:05.221Z,10.1
2023-01-05T05:30:06.162Z,10
2023-01-05T05:31:06.608Z,10.1
2023-01-05T05:32:05.686Z,10.1
2023-01-05T05:33:05.854Z,10.2
2023-01-05T05:34:06.698Z,10.2
2023-01-05T05:35:05.639Z,10.2
2023-01-05T05:36:06.196Z,10.2
2023-01-05T05:37:06.555Z,10.2
2023-01-05T05:38:06.126Z,10.2
2023-01-05T05:39:06.170Z,10.2
2023-01-05T05:40:05.849Z,11
2023-01-05T05:41:05.031Z,10.2
2023-01-05T05:42:06.487Z,10.2
2023-01-05T05:43:05.392Z,10.2
2023-01-05T05:44:06.204Z,10.1
2023-01-05T05:45:06.674Z,10.1
2023-01-05T05:46:05.761Z,10.1
2023-01-05T05:47:06.581Z,10.1
2023-01-05T05:48:05.930Z,10.1
2023-01-05T05:49:05.226Z,10.1
2023-01-05T05:50:06.535Z,10
2023-01-05T05:51:05.768Z,10
2023-01-05T05:52:06.013Z,10
2023-01-05T05:53:06.107Z,10
2023-01-05T05:54:06.468Z,10
2023-01-05T05:55:05.795Z,10
2023-01-05T05:56:05.554Z,10
2023-01-05T05:57:05.909Z,10
2023-01-05T05:58:06.248Z,10.1
2023-01-05T05:59:06.335Z,10
2023-01-05T06:00:06.146Z,10
2023-01-05T06:01:06.780Z,10.1
2023-01-05T06:02:06.790Z,10.1
2023-01-05T06:03:06.630Z,10.1
2023-01-05T06:04:06.454Z,10.1
2023-01-05T06:05:06.800Z,10.1
2023-01-05T06:06:06.296Z,10.1
2023-01-05T06:07:06.630Z,10.1
2023-01-05T06:08:06.048Z,10.1
2023-01-05T06:09:05.611Z,10.1
2023-01-05T06:10:05.949Z,10.1
2023-01-05T06:11:06.373Z,10.1
2023-01-05T06:12:06.815Z,10.1
2023-01-05T06:13:05.885Z,10.1
2023-01-05T06:14:05.980Z,10.1
2023-01-05T06:15:06.273Z,10
2023-01-05T06:16:06.678Z,10.1
2023-01-05T06:17:06.419Z,10.1
2023-01-05T06:18:05.990Z,10.1
2023-01-05T06:19:06.276Z,10.1
2023-01-05T06:20:05.990Z,10.1
2023-01-05T06:21:06.430Z,10.1
2023-01-05T06:22:06.311Z,10.1
2023-01-05T06:23:04.424Z,10.1
2023-01-05T06:24:05.794Z,10.1
2023-01-05T06:25:06.250Z,10.1
2023-01-05T06:26:05.620Z,10
2023-01-05T06:27:06.389Z,10.1
2023-01-05T06:28:06.216Z,10.1
2023-01-05T06:29:05.760Z,10.1
2023-01-05T06:30:06.366Z,10
2023-01-05T06:31:06.127Z,10.1
2023-01-05T06:32:06.227Z,10.1
2023-01-05T06:33:06.445Z,10.1
2023-01-05T06:34:05.808Z,10.1
2023-01-05T06:35:06.406Z,10.1
2023-01-05T06:36:05.917Z,10.1
2023-01-05T06:37:06.835Z,10.2
2023-01-05T06:38:06.666Z,10.1
2023-01-05T06:39:06.048Z,10.1
2023-01-05T06:40:06.276Z,10.1
2023-01-05T06:41:06.014Z,10
2023-01-05T06:42:06.669Z,10.1
2023-01-05T06:43:06.032Z,10.1
2023-01-05T06:44:06.262Z,10.1
2023-01-05T06:45:06.566Z,10.1
2023-01-05T06:46:06.117Z,10.1
2023-01-05T06:47:06.095Z,10
2023-01-05T06:48:06.397Z,10
2023-01-05T06:49:06.602Z,10
2023-01-05T06:50:06.115Z,10
2023-01-05T06:51:06.667Z,10
2023-01-05T06:52:08.561Z,10
2023-01-05T06:53:06.028Z,10
2023-01-05T06:54:05.991Z,10
2023-01-05T06:55:06.183Z,10
2023-01-05T06:56:05.587Z,10
2023-01-05T06:57:06.502Z,10
2023-01-05T06:58:06.238Z,10
2023-01-05T06:59:06.549Z,10
2023-01-05T07:00:06.404Z,10
2023-01-05T07:01:06.681Z,10
2023-01-05T07:02:06.458Z,10
2023-01-05T07:03:06.772Z,10
2023-01-05T07:04:06.360Z,10
2023-01-05T07:05:05.883Z,10
2023-01-05T07:06:10.061Z,9.9
2023-01-05T07:07:06.038Z,9.9
2023-01-05T07:08:06.106Z,10
2023-01-05T07:09:05.956Z,10
2023-01-05T07:10:06.194Z,10
2023-01-05T07:11:06.168Z,10
2023-01-05T07:12:05.898Z,9.9
2023-01-05T07:13:06.029Z,10
2023-01-05T07:14:06.280Z,10
2023-01-05T07:15:06.389Z,10
2023-01-05T07:16:06.782Z,9.9
2023-01-05T07:17:05.667Z,9.9
2023-01-05T07:18:05.997Z,9.9
2023-01-05T07:19:06.163Z,9.9
2023-01-05T07:20:06.374Z,9.9
2023-01-05T07:21:06.413Z,9.9
2023-01-05T07:22:05.879Z,9.9
2023-01-05T07:23:06.717Z,9.9
2023-01-05T07:24:05.671Z,9.9
2023-01-05T07:25:06.042Z,9.9
2023-01-05T07:26:06.349Z,9.9
2023-01-05T07:27:13.414Z,9.9
2023-01-05T07:28:06.121Z,9.9
2023-01-05T07:29:06.745Z,9.9
2023-01-05T07:30:06.038Z,9.9
2023-01-05T07:31:06.053Z,9.9
2023-01-05T07:32:06.321Z,10
2023-01-05T07:33:06.367Z,9.9
2023-01-05T07:34:06.688Z,9.9
2023-01-05T07:35:06.091Z,9.9
2023-01-05T07:36:06.303Z,10
2023-01-05T07:37:06.831Z,10
2023-01-05T07:38:05.895Z,10
2023-01-05T07:39:06.597Z,10
2023-01-05T07:40:05.800Z,9.9
2023-01-05T07:41:05.974Z,9.9
2023-01-05T07:42:06.283Z,9.9
2023-01-05T07:43:05.935Z,9.8
2023-01-05T07:44:06.318Z,9.9
2023-01-05T07:45:05.956Z,9.9
2023-01-05T07:46:06.656Z,9.8
2023-01-05T07:47:06.484Z,9.8
2023-01-05T07:48:05.700Z,10
2023-01-05T07:49:05.724Z,10
2023-01-05T07:50:06.161Z,9.8
2023-01-05T07:51:06.296Z,10
2023-01-05T07:52:06.649Z,9.8
2023-01-05T07:53:05.676Z,9.8
2023-01-05T07:54:06.596Z,10
2023-01-05T07:55:05.561Z,9.8
2023-01-05T07:56:05.751Z,9.8
2023-01-05T07:57:04.779Z,9.8
2023-01-05T07:58:06.459Z,9.8
2023-01-05T07:59:06.205Z,9.8
2023-01-05T08:00:06.061Z,9.8
2023-01-05T08:01:06.413Z,9.8
2023-01-05T08:02:06.703Z,9.8
2023-01-05T08:03:06.279Z,9.7
2023-01-05T08:04:06.282Z,9.7
2023-01-05T08:05:06.371Z,9.7
2023-01-05T08:06:05.756Z,9.7
2023-01-05T08:07:06.112Z,9.7
2023-01-05T08:08:06.542Z,9.7
2023-01-05T08:09:06.233Z,9.7
2023-01-05T08:10:06.432Z,9.7
2023-01-05T08:11:06.561Z,9.6
2023-01-05T08:12:05.657Z,10
2023-01-05T08:13:06.317Z,10
2023-01-05T08:14:05.676Z,10
2023-01-05T08:15:06.772Z,9.6
2023-01-05T08:16:06.830Z,9.6
2023-01-05T08:17:06.149Z,9.6
2023-01-05T08:18:06.155Z,9.6
2023-01-05T08:19:13.379Z,9.6
2023-01-05T08:20:05.884Z,9.5
2023-01-05T08:21:06.713Z,9.5
2023-01-05T08:22:06.005Z,9.5
2023-01-05T08:23:06.502Z,9.5
2023-01-05T08:24:06.058Z,10
2023-01-05T08:25:06.282Z,9.5
2023-01-05T08:26:06.583Z,9.5
2023-01-05T08:27:06.119Z,9.5
2023-01-05T08:28:06.591Z,9.6
2023-01-05T08:29:06.207Z,9.5
2023-01-05T08:30:05.935Z,9.5
2023-01-05T08:31:06.163Z,9.5
2023-01-05T08:32:06.688Z,9.5
2023-01-05T08:33:05.590Z,9.5
2023-01-05T08:34:06.537Z,9.6
2023-01-05T08:35:05.660Z,9.5
2023-01-05T08:36:06.280Z,9.6
2023-01-05T08:37:05.773Z,10
2023-01-05T08:38:06.561Z,9.5
2023-01-05T08:39:06.091Z,9.5
2023-01-05T08:40:06.190Z,9.5
2023-01-05T08:41:06.309Z,9.5
2023-01-05T08:42:07.151Z,9.5
2023-01-05T08:43:05.996Z,9.5
2023-01-05T08:44:06.463Z,9.5
2023-01-05T08:45:05.724Z,10
2023-01-05T08:46:06.061Z,9.5
2023-01-05T08:47:06.212Z,9.5
2023-01-05T08:48:06.174Z,9
2023-01-05T08:49:06.445Z,9.4
2023-01-05T08:50:06.072Z,9.4
2023-01-05T08:51:06.316Z,9.4
2023-01-05T08:52:05.944Z,9.4
2023-01-05T08:53:05.716Z,9.4
2023-01-05T08:54:05.880Z,9.4
2023-01-05T08:55:06.588Z,9.3
2023-01-05T08:56:05.841Z,9.4
2023-01-05T08:57:05.739Z,9.4
2023-01-05T08:58:05.795Z,9.4
2023-01-05T08:59:05.835Z,9.4
2023-01-05T09:00:06.201Z,9.4
2023-01-05T09:01:06.005Z,9
2023-01-05T09:02:06.692Z,9.3
2023-01-05T09:03:06.774Z,9.3
2023-01-05T09:04:06.618Z,9.3
2023-01-05T09:05:06.416Z,9.3
2023-01-05T09:06:06.111Z,9.3
2023-01-05T09:07:06.324Z,9.3
2023-01-05T09:08:05.945Z,9.3
2023-01-05T09:09:06.288Z,9.3
2023-01-05T09:10:05.685Z,9.2
2023-01-05T09:11:06.450Z,9.3
2023-01-05T09:12:06.271Z,9.3
2023-01-05T09:13:06.024Z,9.3
2023-01-05T09:14:06.434Z,9.3
2023-01-05T09:15:06.704Z,9.3
2023-01-05T09:16:06.546Z,9.3
2023-01-05T09:17:14.228Z,9.3
2023-01-05T09:18:06.475Z,9.2
2023-01-05T09:19:06.609Z,9.3
2023-01-05T09:20:05.969Z,9.3
2023-01-05T09:21:05.906Z,9.3
2023-01-05T09:22:06.058Z,9.3
2023-01-05T09:23:05.984Z,9.3
2023-01-05T09:24:04.808Z,9.3
2023-01-05T09:25:06.034Z,9.2
2023-01-05T09:26:06.539Z,9.2
2023-01-05T09:27:05.685Z,9.3
2023-01-05T09:28:05.993Z,9.3
2023-01-05T09:29:06.129Z,9.3
2023-01-05T09:30:06.009Z,9.3
2023-01-05T09:31:06.493Z,9.3
2023-01-05T09:32:06.246Z,9.3
2023-01-05T09:33:06.727Z,9.3
2023-01-05T09:34:06.388Z,9.3
2023-01-05T09:35:06.433Z,9.3
2023-01-05T09:36:06.061Z,9.3
2023-01-05T09:37:05.847Z,9.3
2023-01-05T09:38:05.962Z,9.3
2023-01-05T09:39:06.410Z,9.3
2023-01-05T09:40:06.464Z,9.3
2023-01-05T09:41:05.947Z,9.3
2023-01-05T09:42:04.682Z,9.3
2023-01-05T09:43:05.892Z,9.2
2023-01-05T09:44:06.465Z,9.3
2023-01-05T09:45:06.970Z,9.3
2023-01-05T09:46:06.213Z,9.3
2023-01-05T09:47:05.810Z,9.3
2023-01-05T09:48:06.041Z,9.2
2023-01-05T09:49:06.278Z,9.3
2023-01-05T09:50:05.598Z,9.2
2023-01-05T09:51:06.005Z,9.2
2023-01-05T09:52:06.354Z,9.3
2023-01-05T09:53:05.595Z,9.2
2023-01-05T09:54:06.074Z,9.2
2023-01-05T09:55:05.868Z,9.2
2023-01-05T09:56:05.832Z,9.2
2023-01-05T09:57:14.719Z,9.2
2023-01-05T09:58:06.253Z,9.2
2023-01-05T09:59:06.012Z,9.2
2023-01-05T10:00:06.640Z,9.2
2023-01-05T10:01:06.937Z,9.2
2023-01-05T10:02:06.258Z,9.2
2023-01-05T10:03:06.734Z,9.2
2023-01-05T10:04:08.293Z,9.2
2023-01-05T10:05:07.066Z,9.2
2023-01-05T10:06:05.803Z,9
2023-01-05T10:07:05.618Z,9.2
2023-01-05T10:08:06.030Z,9.2
2023-01-05T10:09:06.530Z,9
2023-01-05T10:10:06.370Z,9
2023-01-05T10:11:06.165Z,9.2
2023-01-05T10:12:06.427Z,9.1
2023-01-05T10:13:06.662Z,9.1
2023-01-05T10:14:06.697Z,9
2023-01-05T10:15:05.986Z,9.2
2023-01-05T10:16:06.330Z,9.2
2023-01-05T10:17:45.825Z,9.2
2023-01-05T10:19:04.895Z,9.2
2023-01-05T10:20:06.016Z,9.2
2023-01-05T10:21:05.767Z,9.2
2023-01-05T10:22:06.258Z,9.2
2023-01-05T10:23:06.539Z,9.1
2023-01-05T10:24:05.781Z,9.1
2023-01-05T10:25:05.531Z,9.1
2023-01-05T10:26:05.677Z,9.2
2023-01-05T10:27:36.164Z,9.2
2023-01-05T10:28:06.374Z,9.2
2023-01-05T10:29:06.711Z,9.2
2023-01-05T10:30:05.770Z,9.2
2023-01-05T10:31:06.669Z,9.1
2023-01-05T10:32:05.970Z,9.2
2023-01-05T10:33:48.751Z,9
2023-01-05T10:34:16.283Z,9.2
2023-01-05T10:35:09.229Z,9.2
2023-01-05T10:36:16.819Z,9.2
2023-01-05T10:37:14.230Z,9.2
2023-01-05T10:38:05.915Z,9.2
2023-01-05T10:39:04.895Z,9.2
2023-01-05T10:40:06.063Z,9.2
2023-01-05T10:41:06.335Z,9.2
2023-01-05T10:42:06.466Z,9.2
2023-01-05T10:43:06.107Z,9.2
2023-01-05T10:44:06.445Z,9.3
2023-01-05T10:45:06.410Z,9.2
2023-01-05T10:46:50.428Z,9.2
2023-01-05T10:47:05.813Z,9.2
2023-01-05T10:48:05.997Z,9.2
2023-01-05T10:49:05.550Z,9.2
2023-01-05T10:50:05.131Z,9.3
2023-01-05T10:51:06.149Z,9.3
2023-01-05T10:52:06.014Z,9
2023-01-05T10:53:06.513Z,9.3
2023-01-05T10:54:06.648Z,9.3
2023-01-05T10:55:05.805Z,9.3
2023-01-05T10:56:05.628Z,9.3
2023-01-05T10:57:05.818Z,9.2
2023-01-05T10:58:05.969Z,9.2
2023-01-05T10:59:06.271Z,9.3
2023-01-05T11:00:06.929Z,9.3
2023-01-05T11:01:06.688Z,9.3
2023-01-05T11:02:05.956Z,9.3
2023-01-05T11:03:06.449Z,9.2
2023-01-05T11:04:38.246Z,9.3
2023-01-05T11:05:06.309Z,9.3
2023-01-05T11:06:06.444Z,9.3
2023-01-05T11:07:06.219Z,9.3
2023-01-05T11:08:06.627Z,9.3
2023-01-05T11:09:05.977Z,9.3
2023-01-05T11:10:06.261Z,9.3
2023-01-05T11:11:06.487Z,9.2
2023-01-05T11:12:05.605Z,9.2
2023-01-05T11:13:05.961Z,9.2
2023-01-05T11:14:06.710Z,9.2
2023-01-05T11:15:06.297Z,9.2
2023-01-05T11:16:06.025Z,9.2
2023-01-05T11:17:06.144Z,9.3
2023-01-05T11:18:06.102Z,9.3
2023-01-05T11:19:06.033Z,9.3
2023-01-05T11:20:06.164Z,9.3
2023-01-05T11:21:06.236Z,9.2
2023-01-05T11:22:07.374Z,9.2
2023-01-05T11:23:06.377Z,9.3
2023-01-05T11:24:05.943Z,9.3
2023-01-05T11:25:04.896Z,9.3
2023-01-05T11:26:06.469Z,9.2
2023-01-05T11:27:06.604Z,9.3
2023-01-05T11:28:09.527Z,9.3
2023-01-05T11:29:06.404Z,9.3
2023-01-05T11:30:06.561Z,9.3
2023-01-05T11:31:06.328Z,9.3
2023-01-05T11:32:06.212Z,9
2023-01-05T11:33:06.159Z,9.4
2023-01-05T11:34:06.202Z,9.3
2023-01-05T11:35:06.532Z,9.3
2023-01-05T11:36:05.224Z,9.3
2023-01-05T11:37:12.074Z,9.4
2023-01-05T11:38:06.340Z,9.3
2023-01-05T11:39:06.064Z,9.4
2023-01-05T11:40:06.661Z,9.3
2023-01-05T11:41:05.841Z,9.3
2023-01-05T11:42:06.734Z,9.3
2023-01-05T11:43:05.812Z,9.3
2023-01-05T11:44:06.433Z,9.3
2023-01-05T11:45:05.681Z,9.3
2023-01-05T11:46:06.210Z,9.3
2023-01-05T11:47:06.191Z,9.3
2023-01-05T11:48:06.381Z,9.3
2023-01-05T11:49:05.297Z,9.3
2023-01-05T11:50:12.951Z,9.4
2023-01-05T11:51:06.610Z,9.4
2023-01-05T11:52:06.460Z,9.3
2023-01-05T11:53:05.653Z,9.3
2023-01-05T11:54:06.547Z,9.3
2023-01-05T11:55:05.853Z,9.3
2023-01-05T11:56:06.007Z,9.3
2023-01-05T11:57:06.262Z,9
2023-01-05T11:58:06.472Z,9.4
2023-01-05T11:59:06.674Z,9.4
2023-01-05T12:00:05.908Z,9.4
2023-01-05T12:01:06.552Z,9.4
2023-01-05T12:02:05.900Z,9.4
2023-01-05T12:03:06.733Z,9.4
2023-01-05T12:04:06.769Z,9.5
2023-01-05T12:05:06.644Z,9.6
2023-01-05T12:06:05.794Z,9.6
2023-01-05T12:07:06.050Z,9.6
2023-01-05T12:08:06.624Z,9.6
2023-01-05T12:09:06.788Z,9.6
2023-01-05T12:10:06.097Z,9.6
2023-01-05T12:11:06.118Z,9.6
2023-01-05T12:12:06.485Z,9.6
2023-01-05T12:13:05.878Z,9.6
2023-01-05T12:14:04.893Z,9.6
2023-01-05T12:15:04.625Z,9.6
2023-01-05T12:16:07.209Z,9.6
2023-01-05T12:17:06.052Z,9.6
2023-01-05T12:18:06.446Z,9.6
2023-01-05T12:19:05.772Z,9.6
2023-01-05T12:20:06.189Z,9.6
2023-01-05T12:21:06.436Z,9.6
2023-01-05T12:22:07.038Z,9.6
2023-01-05T12:23:06.420Z,10
2023-01-05T12:24:06.613Z,9.6
2023-01-05T12:25:06.129Z,9.6
2023-01-05T12:26:06.694Z,9.6
2023-01-05T12:27:06.608Z,9.6
2023-01-05T12:28:09.674Z,9.6
2023-01-05T12:33:35.641Z,9.6
2023-01-05T12:34:04.341Z,9.6
2023-01-05T12:34:05.247Z,9.6
2023-01-05T12:34:07.473Z,9.6
2023-01-05T12:35:05.809Z,9
2023-01-05T12:36:06.040Z,9.5
2023-01-05T12:37:06.078Z,9.5
2023-01-05T12:38:05.350Z,9.5
2023-01-05T12:39:04.831Z,9.5
2023-01-05T12:40:06.787Z,9.5
2023-01-05T12:41:06.093Z,9.5
2023-01-05T12:42:06.567Z,9.5
2023-01-05T12:43:05.813Z,9.4
2023-01-05T12:44:06.431Z,9.4
2023-01-05T12:45:06.177Z,9.4
2023-01-05T12:46:05.917Z,9.4
2023-01-05T12:47:06.714Z,9.4
2023-01-05T12:48:06.091Z,9.4
2023-01-05T12:49:06.347Z,9.4
2023-01-05T12:50:05.244Z,9.4
2023-01-05T12:51:06.504Z,9.3
2023-01-05T12:52:10.956Z,9.3
2023-01-05T12:53:05.724Z,9
2023-01-05T12:54:05.924Z,9
2023-01-05T12:55:05.979Z,9
2023-01-05T12:56:06.590Z,9.3
2023-01-05T12:57:06.493Z,9.3
2023-01-05T12:58:05.860Z,9.2
2023-01-05T12:59:06.445Z,9.2
2023-01-05T13:00:05.784Z,9.3
2023-01-05T13:01:06.582Z,9.3
2023-01-05T13:02:06.521Z,9.2
2023-01-05T13:03:06.520Z,9.3
2023-01-05T13:04:06.424Z,9.3
2023-01-05T13:05:06.678Z,9.3
2023-01-05T13:06:05.770Z,9
2023-01-05T13:07:06.036Z,9.2
2023-01-05T13:08:05.674Z,9.2
2023-01-05T13:09:05.927Z,9.2
2023-01-05T13:10:07.615Z,9.2
2023-01-05T13:11:06.052Z,9.2
2023-01-05T13:12:06.347Z,9.2
2023-01-05T13:13:06.257Z,9.2
2023-01-05T13:14:06.344Z,9.2
2023-01-05T13:15:05.589Z,9.3
2023-01-05T13:16:06.491Z,9.2
2023-01-05T13:17:06.448Z,9.2
2023-01-05T13:18:06.239Z,9.3
2023-01-05T13:19:05.705Z,9.2
2023-01-05T13:20:05.736Z,9.2
2023-01-05T13:21:15.100Z,9.2
2023-01-05T13:22:06.413Z,9.2
2023-01-05T13:23:05.994Z,9.3
2023-01-05T13:24:05.909Z,9.3
2023-01-05T13:25:05.617Z,9.2
2023-01-05T13:26:06.199Z,9.2
2023-01-05T13:27:05.741Z,9.3
2023-01-05T13:29:06.264Z,9.3
2023-01-05T13:30:05.962Z,9
2023-01-05T13:31:06.541Z,9.3
2023-01-05T13:32:06.573Z,9.3
2023-01-05T13:33:05.975Z,9.3
2023-01-05T13:34:05.814Z,9.3
2023-01-05T13:35:06.093Z,9.3
2023-01-05T13:36:06.301Z,9.3
2023-01-05T13:37:05.987Z,9.3
2023-01-05T13:38:05.866Z,9.3
2023-01-05T13:39:05.639Z,9.3
2023-01-05T13:40:06.000Z,9.3
2023-01-05T13:41:06.070Z,9
2023-01-05T13:42:05.555Z,9.3
2023-01-05T13:44:06.110Z,9.3
2023-01-05T13:45:06.103Z,9.3
2023-01-05T13:46:06.503Z,9.3
2023-01-05T13:47:05.684Z,9.3
2023-01-05T13:48:14.843Z,9.3
2023-01-05T13:49:09.018Z,9
2023-01-05T13:50:05.992Z,9.3
2023-01-05T13:51:04.957Z,9.3